createdAt,value
2022-08-22T00:00:54.231Z,101294.84
2022-08-22T00:02:48.332Z,101325.84
2022-08-22T00:03:39.607Z,101296.09
2022-08-22T00:06:31.213Z,101289.16
2022-08-22T00:09:05.608Z,101292.13
2022-08-22T00:12:02.245Z,101293.16
2022-08-22T00:14:46.356Z,101288.06
2022-08-22T00:17:23.732Z,101294.63
2022-08-22T00:20:13.229Z,101296.72
2022-08-22T00:23:11.507Z,101297.13
2022-08-22T00:25:42.133Z,101299.25
2022-08-22T00:28:24.331Z,101292.28
2022-08-22T00:31:22.482Z,101293.09
2022-08-22T00:34:00.354Z,101294.81
2022-08-22T00:36:47.857Z,101289.34
2022-08-22T00:39:24.341Z,101288.88
2022-08-22T00:41:53.672Z,101289.28
2022-08-22T00:44:49.674Z,101297.09
2022-08-22T00:47:36.150Z,101296.47
2022-08-22T00:50:21.086Z,101299.41
2022-08-22T00:53:21.935Z,101300.44
2022-08-22T00:56:02.817Z,101303.19
2022-08-22T00:59:23.718Z,101310.16
2022-08-22T01:02:11.040Z,101305.72
2022-08-22T01:05:11.165Z,101305.06
2022-08-22T01:08:00.309Z,101301.31
2022-08-22T01:10:54.693Z,101297.50
2022-08-22T01:13:48.150Z,101307.19
2022-08-22T01:16:29.093Z,101300.00
2022-08-22T01:19:27.348Z,101314.13
2022-08-22T01:22:24.313Z,101304.22
2022-08-22T01:25:22.464Z,101303.81
2022-08-22T01:27:57.642Z,101312.81
2022-08-22T01:30:39.598Z,101307.81
2022-08-22T01:33:44.696Z,101306.84
2022-08-22T01:36:29.612Z,101307.56
2022-08-22T01:38:55.971Z,101306.72
2022-08-22T01:41:43.721Z,101303.97
2022-08-22T01:44:13.062Z,101300.00
2022-08-22T01:46:58.486Z,101311.97
2022-08-22T01:49:29.793Z,101309.81
2022-08-22T01:52:05.657Z,101303.72
2022-08-22T01:54:46.073Z,101302.41
2022-08-22T01:57:13.784Z,101303.97
2022-08-22T01:59:50.060Z,101302.66
2022-08-22T02:02:26.588Z,101295.06
2022-08-22T02:05:02.311Z,101303.75
2022-08-22T02:07:41.551Z,101295.56
2022-08-22T02:10:26.625Z,101291.72
2022-08-22T02:13:05.028Z,101292.63
2022-08-22T02:15:40.192Z,101293.41
2022-08-22T02:18:06.613Z,101293.19
2022-08-22T02:20:48.387Z,101289.19
2022-08-22T02:23:24.962Z,101290.03
2022-08-22T02:26:20.859Z,101290.22
2022-08-22T02:28:57.466Z,101292.53
2022-08-22T02:31:42.407Z,101282.41
2022-08-22T02:34:37.282Z,101288.28
2022-08-22T02:37:32.037Z,101284.09
2022-08-22T02:40:17.340Z,101284.94
2022-08-22T02:43:08.761Z,101287.84
2022-08-22T02:45:43.055Z,101285.53
2022-08-22T02:48:40.269Z,101280.72
2022-08-22T02:51:21.954Z,101283.88
2022-08-22T02:53:53.826Z,101286.78
2022-08-22T02:56:23.430Z,101284.69
2022-08-22T02:58:57.052Z,101285.31
2022-08-22T03:01:37.182Z,101277.91
2022-08-22T03:04:31.738Z,101281.47
2022-08-22T03:06:58.067Z,101281.47
2022-08-22T03:09:32.489Z,101277.47
2022-08-22T03:12:07.659Z,101272.25
2022-08-22T03:14:49.609Z,101273.25
2022-08-22T03:17:28.879Z,101269.22
2022-08-22T03:20:13.776Z,101266.09
2022-08-22T03:22:43.637Z,101272.66
2022-08-22T03:25:33.097Z,101275.38
2022-08-22T03:28:03.741Z,101271.09
2022-08-22T03:30:33.503Z,101265.25
2022-08-22T03:33:17.891Z,101260.22
2022-08-22T03:35:44.274Z,101255.13
2022-08-22T03:38:39.640Z,101264.81
2022-08-22T03:41:15.241Z,101263.38
2022-08-22T03:43:56.590Z,101259.53
2022-08-22T03:46:48.382Z,101251.56
2022-08-22T03:49:36.365Z,101257.47
2022-08-22T03:52:56.701Z,101253.44
2022-08-22T03:55:46.852Z,101253.81
2022-08-22T03:58:36.997Z,101256.78
2022-08-22T04:01:30.166Z,101265.50
2022-08-22T04:04:50.255Z,101264.94
2022-08-22T04:07:35.266Z,101253.41
2022-08-22T04:10:25.894Z,101259.69
2022-08-22T04:13:15.817Z,101257.63
2022-08-22T04:16:13.488Z,101258.44
2022-08-22T04:18:45.972Z,101250.50
2022-08-22T04:21:24.319Z,101252.34
2022-08-22T04:24:22.271Z,101255.94
2022-08-22T04:26:51.308Z,101258.19
2022-08-22T04:29:42.854Z,101259.88
2022-08-22T04:32:30.878Z,101256.34
2022-08-22T04:35:10.781Z,101264.53
2022-08-22T04:37:59.338Z,101268.72
2022-08-22T04:40:34.048Z,101273.53
2022-08-22T04:43:09.008Z,101271.47
2022-08-22T04:45:42.188Z,101282.41
2022-08-22T04:48:37.697Z,101274.38
2022-08-22T04:51:12.451Z,101270.41
2022-08-22T04:53:44.956Z,101276.78
2022-08-22T04:56:23.193Z,101268.34
2022-08-22T04:59:03.637Z,101268.75
2022-08-22T05:01:46.617Z,101269.59
2022-08-22T05:04:51.114Z,101268.75
2022-08-22T05:07:25.195Z,101276.06
2022-08-22T05:09:56.422Z,101282.97
2022-08-22T05:12:33.458Z,101281.53
2022-08-22T05:15:13.598Z,101282.81
2022-08-22T05:17:43.514Z,101289.09
2022-08-22T05:20:15.185Z,101288.50
2022-08-22T05:22:45.768Z,101281.38
2022-08-22T05:25:18.868Z,101280.28
2022-08-22T05:27:56.264Z,101280.13
2022-08-22T05:30:28.312Z,101282.06
2022-08-22T05:33:13.742Z,101285.00
2022-08-22T05:35:52.441Z,101285.59
2022-08-22T05:38:27.954Z,101293.66
2022-08-22T05:41:01.620Z,101290.53
2022-08-22T05:43:28.622Z,101305.84
2022-08-22T05:45:58.452Z,101299.13
2022-08-22T05:48:42.113Z,101304.38
2022-08-22T05:51:23.376Z,101306.22
2022-08-22T05:53:56.371Z,101307.72
2022-08-22T05:57:08.059Z,101307.09
2022-08-22T05:59:39.914Z,101308.88
2022-08-22T06:02:14.172Z,101303.38
2022-08-22T06:04:50.169Z,101306.34
2022-08-22T06:07:33.206Z,101303.03
2022-08-22T06:10:16.500Z,101309.34
2022-08-22T06:13:00.823Z,101313.41
2022-08-22T06:15:43.567Z,101316.31
2022-08-22T06:18:18.849Z,101316.41
2022-08-22T06:20:59.626Z,101315.59
2022-08-22T06:23:49.414Z,101320.47
2022-08-22T06:26:20.283Z,101316.31
2022-08-22T06:28:54.961Z,101316.53
2022-08-22T06:31:27.477Z,101326.25
2022-08-22T06:34:14.360Z,101323.75
2022-08-22T06:36:48.484Z,101325.00
2022-08-22T06:39:29.429Z,101328.41
2022-08-22T06:42:04.879Z,101336.00
2022-08-22T06:44:38.105Z,101323.38
2022-08-22T06:47:08.230Z,101333.06
2022-08-22T06:49:37.481Z,101337.94
2022-08-22T06:52:14.162Z,101333.97
2022-08-22T06:54:46.953Z,101338.63
2022-08-22T06:57:28.316Z,101336.50
2022-08-22T06:59:56.996Z,101337.56
2022-08-22T07:02:30.959Z,101339.19
2022-08-22T07:04:57.549Z,101337.63
2022-08-22T07:07:26.527Z,101340.84
2022-08-22T07:09:56.193Z,101336.16
2022-08-22T07:12:30.594Z,101330.59
2022-08-22T07:15:29.907Z,101336.63
2022-08-22T07:18:00.075Z,101329.09
2022-08-22T07:20:31.387Z,101327.66
2022-08-22T07:23:02.684Z,101331.66
2022-08-22T07:25:30.363Z,101331.88
2022-08-22T07:28:16.178Z,101333.75
2022-08-22T07:31:18.109Z,101328.84
2022-08-22T07:34:03.058Z,101328.16
2022-08-22T07:36:46.289Z,101322.22
2022-08-22T07:39:43.505Z,101331.97
2022-08-22T07:42:15.941Z,101329.91
2022-08-22T07:44:58.927Z,101327.06
2022-08-22T07:47:34.764Z,101320.88
2022-08-22T07:50:07.138Z,101320.34
2022-08-22T07:52:42.529Z,101320.06
2022-08-22T07:55:17.630Z,101323.53
2022-08-22T07:57:49.613Z,101317.50
2022-08-22T08:00:19.809Z,101313.78
2022-08-22T08:02:56.296Z,101309.59
2022-08-22T08:05:24.971Z,101318.69
2022-08-22T08:07:54.676Z,101308.91
2022-08-22T08:10:34.785Z,101304.38
2022-08-22T08:13:19.282Z,101302.47
2022-08-22T08:15:46.098Z,101297.56
2022-08-22T08:18:19.369Z,101301.22
2022-08-22T08:20:56.578Z,101297.22
2022-08-22T08:23:25.069Z,101292.66
2022-08-22T08:26:03.923Z,101287.50
2022-08-22T08:28:37.732Z,101280.16
2022-08-22T08:31:07.555Z,101275.50
2022-08-22T08:33:38.162Z,101273.97
2022-08-22T08:36:29.523Z,101273.22
2022-08-22T08:38:59.418Z,101282.25
2022-08-22T08:41:44.562Z,101284.84
2022-08-22T08:44:37.216Z,101279.78
2022-08-22T08:47:41.824Z,101283.53
2022-08-22T08:50:24.098Z,101270.19
2022-08-22T08:53:15.070Z,101277.25
2022-08-22T08:55:54.966Z,101265.91
2022-08-22T08:58:44.618Z,101266.81
2022-08-22T09:01:29.019Z,101272.16
2022-08-22T09:04:19.589Z,101275.50
2022-08-22T09:07:15.152Z,101277.19
2022-08-22T09:10:01.528Z,101280.94
2022-08-22T09:12:36.420Z,101274.06
2022-08-22T09:15:37.489Z,101267.25
2022-08-22T09:18:28.773Z,101272.72
2022-08-22T09:21:16.638Z,101257.81
2022-08-22T09:24:33.662Z,101263.97
2022-08-22T09:27:08.503Z,101261.19
2022-08-22T09:29:55.372Z,101261.16
2022-08-22T09:32:42.366Z,101259.50
2022-08-22T09:35:20.759Z,101255.09
2022-08-22T09:38:05.767Z,101252.25
2022-08-22T09:41:00.135Z,101248.91
2022-08-22T09:43:50.210Z,101247.84
2022-08-22T09:46:32.085Z,101254.28
2022-08-22T09:49:14.453Z,101249.19
2022-08-22T09:51:51.933Z,101248.69
2022-08-22T09:54:31.056Z,101252.50
2022-08-22T09:57:01.136Z,101242.72
2022-08-22T09:59:33.683Z,101252.50
2022-08-22T10:02:32.233Z,101243.94
2022-08-22T10:05:51.112Z,101253.84
2022-08-22T10:08:46.823Z,101240.06
2022-08-22T10:11:32.234Z,101236.41
2022-08-22T10:14:08.374Z,101233.63
2022-08-22T10:16:40.995Z,101229.91
2022-08-22T10:19:26.203Z,101224.91
2022-08-22T10:22:20.763Z,101231.38
2022-08-22T10:24:54.451Z,101231.56
2022-08-22T10:27:42.674Z,101231.53
2022-08-22T10:30:22.531Z,101238.41
2022-08-22T10:33:14.151Z,101228.34
2022-08-22T10:35:43.646Z,101230.63
2022-08-22T10:38:31.207Z,101217.56
2022-08-22T10:41:09.389Z,101222.09
2022-08-22T10:43:59.062Z,101215.94
2022-08-22T10:46:42.230Z,101219.38
2022-08-22T10:49:19.917Z,101215.53
2022-08-22T10:52:06.511Z,101204.66
2022-08-22T10:54:51.830Z,101205.31
2022-08-22T10:57:40.145Z,101205.22
2022-08-22T11:00:07.019Z,101208.75
2022-08-22T11:03:00.946Z,101203.69
2022-08-22T11:05:41.649Z,101200.69
2022-08-22T11:08:33.091Z,101204.00
2022-08-22T11:11:23.338Z,101213.16
2022-08-22T11:14:18.953Z,101213.97
2022-08-22T11:17:23.564Z,101210.47
2022-08-22T11:20:14.628Z,101200.38
2022-08-22T11:23:02.981Z,101205.38
2022-08-22T11:25:41.272Z,101197.06
2022-08-22T11:28:28.925Z,101201.22
2022-08-22T11:31:36.725Z,101196.41
2022-08-22T11:34:21.320Z,101197.84
2022-08-22T11:36:54.529Z,101188.16
2022-08-22T11:39:24.994Z,101195.22
2022-08-22T11:42:00.778Z,101188.19
2022-08-22T11:44:32.308Z,101189.91
2022-08-22T11:47:07.194Z,101179.09
2022-08-22T11:49:46.453Z,101190.16
2022-08-22T11:52:39.382Z,101194.09
2022-08-22T11:55:17.656Z,101196.00
2022-08-22T11:57:59.116Z,101192.69
2022-08-22T12:00:34.434Z,101186.06
2022-08-22T12:03:24.581Z,101187.16
2022-08-22T12:06:15.293Z,101187.16
2022-08-22T12:08:43.424Z,101183.56
2022-08-22T12:11:23.715Z,101183.84
2022-08-22T12:14:03.861Z,101179.94
2022-08-22T12:16:53.463Z,101189.66
2022-08-22T12:19:20.107Z,101193.88
2022-08-22T12:21:58.486Z,101193.13
2022-08-22T12:25:03.062Z,101178.78
2022-08-22T12:27:48.264Z,101169.91
2022-08-22T12:30:54.612Z,101180.84
2022-08-22T12:33:33.296Z,101177.06
2022-08-22T12:36:21.145Z,101175.44
2022-08-22T12:39:12.508Z,101170.69
2022-08-22T12:42:06.252Z,101174.31
2022-08-22T12:45:00.344Z,101185.28
2022-08-22T12:47:42.229Z,101175.81
2022-08-22T12:50:23.759Z,101179.09
2022-08-22T12:53:10.704Z,101176.06
2022-08-22T12:55:57.236Z,101174.38
2022-08-22T12:58:33.896Z,101177.81
2022-08-22T13:01:06.285Z,101170.66
2022-08-22T13:03:44.642Z,101169.44
2022-08-22T13:06:36.140Z,101165.13
2022-08-22T13:09:10.026Z,101162.78
2022-08-22T13:11:41.543Z,101160.78
2022-08-22T13:14:18.498Z,101164.63
2022-08-22T13:16:56.247Z,101153.22
2022-08-22T13:19:35.380Z,101149.50
2022-08-22T13:22:11.528Z,101150.22
2022-08-22T13:24:52.637Z,101153.59
2022-08-22T13:27:51.297Z,101141.66
2022-08-22T13:30:37.571Z,101140.88
2022-08-22T13:33:22.095Z,101146.44
2022-08-22T13:36:01.054Z,101140.75
2022-08-22T13:38:50.542Z,101138.78
2022-08-22T13:41:26.161Z,101143.41
2022-08-22T13:43:53.287Z,101135.69
2022-08-22T13:46:28.175Z,101136.94
2022-08-22T13:49:00.706Z,101136.41
2022-08-22T13:51:48.157Z,101132.47
2022-08-22T13:54:40.254Z,101133.03
2022-08-22T13:57:18.989Z,101131.03
2022-08-22T14:00:28.926Z,101131.00
2022-08-22T14:03:18.020Z,101127.34
2022-08-22T14:05:53.320Z,101122.16
2022-08-22T14:08:25.833Z,101126.56
2022-08-22T14:10:58.358Z,101127.66
2022-08-22T14:13:32.833Z,101119.75
2022-08-22T14:16:10.446Z,101121.59
2022-08-22T14:18:45.506Z,101110.06
2022-08-22T14:21:25.895Z,101121.38
2022-08-22T14:24:00.689Z,101115.75
2022-08-22T14:26:32.974Z,101107.06
2022-08-22T14:29:11.546Z,101114.22
2022-08-22T14:31:38.082Z,101110.97
2022-08-22T14:34:10.445Z,101119.72
2022-08-22T14:37:18.189Z,101118.66
2022-08-22T14:39:53.929Z,101113.91
2022-08-22T14:42:26.568Z,101104.97
2022-08-22T14:45:28.801Z,101106.56
2022-08-22T14:48:30.029Z,101102.38
2022-08-22T14:51:03.911Z,101097.31
2022-08-22T14:53:37.151Z,101088.41
2022-08-22T14:56:11.636Z,101091.19
2022-08-22T14:58:49.800Z,101090.63
2022-08-22T15:01:21.647Z,101084.19
2022-08-22T15:03:55.394Z,101089.84
2022-08-22T15:06:48.207Z,101085.56
2022-08-22T15:09:36.729Z,101076.16
2022-08-22T15:12:21.433Z,101081.22
2022-08-22T15:14:52.704Z,101078.91
2022-08-22T15:17:44.192Z,101077.13
2022-08-22T15:20:28.583Z,101075.94
2022-08-22T15:22:59.086Z,101069.13
2022-08-22T15:25:40.955Z,101075.84
2022-08-22T15:28:14.152Z,101075.84
2022-08-22T15:31:03.739Z,101067.19
2022-08-22T15:33:36.104Z,101063.47
2022-08-22T15:36:15.785Z,101066.56
2022-08-22T15:38:48.307Z,101067.88
2022-08-22T15:41:38.091Z,101066.03
2022-08-22T15:44:18.272Z,101064.09
2022-08-22T15:47:01.810Z,101071.72
2022-08-22T15:49:34.570Z,101067.13
2022-08-22T15:52:01.097Z,101062.72
2022-08-22T15:54:51.176Z,101070.63
2022-08-22T15:57:35.034Z,101064.47
2022-08-22T16:00:32.600Z,101057.94
2022-08-22T16:03:14.344Z,101067.03
2022-08-22T16:05:51.990Z,101060.34
2022-08-22T16:08:27.452Z,101061.44
2022-08-22T16:11:02.076Z,101056.34
2022-08-22T16:13:31.747Z,101058.88
2022-08-22T16:16:03.966Z,101060.03
2022-08-22T16:18:33.361Z,101052.41
2022-08-22T16:21:13.243Z,101048.84
2022-08-22T16:23:49.661Z,101041.84
2022-08-22T16:26:31.346Z,101040.78
2022-08-22T16:29:12.546Z,101038.09
2022-08-22T16:31:43.774Z,101031.53
2022-08-22T16:34:20.163Z,101030.13
2022-08-22T16:36:49.366Z,101041.03
2022-08-22T16:39:21.479Z,101030.47
2022-08-22T16:42:15.894Z,101028.53
2022-08-22T16:44:45.568Z,101027.88
2022-08-22T16:47:20.532Z,101031.16
2022-08-22T16:49:49.857Z,101026.47
2022-08-22T16:52:25.072Z,101025.56
2022-08-22T16:55:01.068Z,101030.59
2022-08-22T16:58:09.072Z,101025.28
2022-08-22T17:01:00.089Z,101021.41
2022-08-22T17:03:32.725Z,101017.22
2022-08-22T17:06:14.043Z,101021.16
2022-08-22T17:09:09.219Z,101013.53
2022-08-22T17:11:38.553Z,101018.63
2022-08-22T17:14:20.034Z,101009.16
2022-08-22T17:16:57.311Z,101008.06
2022-08-22T17:19:39.238Z,101012.75
2022-08-22T17:22:20.627Z,101004.91
2022-08-22T17:25:09.889Z,101012.78
2022-08-22T17:27:46.886Z,101010.56
2022-08-22T17:30:27.549Z,101013.16
2022-08-22T17:33:23.478Z,101014.78
2022-08-22T17:35:57.049Z,101014.13
2022-08-22T17:38:54.291Z,101010.03
2022-08-22T17:41:23.681Z,101010.53
2022-08-22T17:44:28.793Z,101007.66
2022-08-22T17:46:59.681Z,101010.22
2022-08-22T17:49:41.173Z,101008.41
2022-08-22T17:52:15.908Z,101010.25
2022-08-22T17:54:52.012Z,101015.78
2022-08-22T17:57:25.359Z,101008.19
2022-08-22T17:59:59.227Z,101014.97
2022-08-22T18:02:32.878Z,101012.94
2022-08-22T18:05:14.035Z,101011.81
2022-08-22T18:07:52.358Z,101015.00
2022-08-22T18:10:30.225Z,101017.34
2022-08-22T18:13:09.835Z,101017.66
2022-08-22T18:16:08.525Z,101025.72
2022-08-22T18:18:39.128Z,101030.28
2022-08-22T18:21:12.026Z,101027.22
2022-08-22T18:23:44.426Z,101033.13
2022-08-22T18:26:39.860Z,101029.22
2022-08-22T18:29:17.205Z,101033.53
2022-08-22T18:31:49.620Z,101026.78
2022-08-22T18:34:40.018Z,101034.56
2022-08-22T18:37:41.397Z,101037.94
2022-08-22T18:40:32.431Z,101051.38
2022-08-22T18:43:14.553Z,101053.28
2022-08-22T18:45:44.640Z,101054.81
2022-08-22T18:48:54.255Z,101052.31
2022-08-22T18:51:38.676Z,101060.97
2022-08-22T18:54:05.284Z,101065.72
2022-08-22T18:56:33.002Z,101067.41
2022-08-22T18:59:29.647Z,101077.59
2022-08-22T19:02:33.967Z,101073.28
2022-08-22T19:05:12.411Z,101074.59
2022-08-22T19:08:01.575Z,101075.56
2022-08-22T19:10:58.866Z,101076.75
2022-08-22T19:13:43.706Z,101082.63
2022-08-22T19:16:12.966Z,101079.16
2022-08-22T19:18:50.913Z,101078.09
2022-08-22T19:21:47.968Z,101083.09
2022-08-22T19:24:20.489Z,101080.84
2022-08-22T19:26:51.342Z,101084.53
2022-08-22T19:29:17.724Z,101090.13
2022-08-22T19:31:54.640Z,101095.63
2022-08-22T19:34:30.764Z,101090.22
2022-08-22T19:37:33.086Z,101095.50
2022-08-22T19:40:05.749Z,101092.94
2022-08-22T19:42:36.004Z,101092.13
2022-08-22T19:45:08.907Z,101085.38
2022-08-22T19:47:40.571Z,101091.69
2022-08-22T19:50:24.947Z,101090.47
2022-08-22T19:53:01.529Z,101086.69
2022-08-22T19:55:37.454Z,101085.34
2022-08-22T19:58:32.517Z,101090.84
2022-08-22T20:01:21.479Z,101089.31
2022-08-22T20:04:07.354Z,101086.19
2022-08-22T20:06:45.025Z,101085.25
2022-08-22T20:09:20.706Z,101081.00
2022-08-22T20:12:04.332Z,101079.72
2022-08-22T20:14:33.608Z,101075.00
2022-08-22T20:17:05.449Z,101078.72
2022-08-22T20:20:17.810Z,101076.81
2022-08-22T20:22:52.966Z,101076.72
2022-08-22T20:25:43.708Z,101076.03
2022-08-22T20:28:38.464Z,101076.03
2022-08-22T20:31:12.341Z,101071.31
2022-08-22T20:33:42.458Z,101070.38
2022-08-22T20:36:18.591Z,101077.28
2022-08-22T20:39:00.229Z,101070.38
2022-08-22T20:41:35.579Z,101071.69
2022-08-22T20:44:21.662Z,101072.94
2022-08-22T20:46:53.814Z,101077.81
2022-08-22T20:49:37.661Z,101072.16
2022-08-22T20:52:07.429Z,101074.22
2022-08-22T20:54:39.545Z,101070.88
2022-08-22T20:57:19.260Z,101071.34
2022-08-22T20:59:56.620Z,101068.72
2022-08-22T21:02:26.033Z,101076.13
2022-08-22T21:05:01.469Z,101064.91
2022-08-22T21:07:32.280Z,101064.00
2022-08-22T21:10:27.020Z,101062.53
2022-08-22T21:13:11.514Z,101074.69
2022-08-22T21:15:42.471Z,101076.44
2022-08-22T21:18:11.863Z,101073.53
2022-08-22T21:20:39.277Z,101069.34
2022-08-22T21:23:11.949Z,101076.13
2022-08-22T21:26:02.096Z,101069.03
2022-08-22T21:28:55.540Z,101070.19
2022-08-22T21:31:24.960Z,101064.22
2022-08-22T21:33:54.045Z,101075.13
2022-08-22T21:36:24.869Z,101067.34
2022-08-22T21:38:57.093Z,101056.66
2022-08-22T21:41:26.231Z,101068.56
2022-08-22T21:43:54.001Z,101063.81
2022-08-22T21:46:27.447Z,101062.78
2022-08-22T21:49:00.064Z,101053.00
2022-08-22T21:51:43.772Z,101057.03
2022-08-22T21:54:21.246Z,101059.78
2022-08-22T21:56:49.356Z,101055.34
2022-08-22T21:59:51.625Z,101057.47
2022-08-22T22:02:29.020Z,101057.47
2022-08-22T22:04:58.009Z,101055.59
2022-08-22T22:07:25.496Z,101052.44
2022-08-22T22:09:54.502Z,101058.09
2022-08-22T22:12:22.623Z,101052.63
2022-08-22T22:14:49.639Z,101056.63
2022-08-22T22:17:18.007Z,101057.72
2022-08-22T22:19:44.804Z,101056.44
2022-08-22T22:22:11.229Z,101060.47
2022-08-22T22:24:37.662Z,101057.38
2022-08-22T22:27:05.022Z,101062.28
2022-08-22T22:29:32.881Z,101059.25
2022-08-22T22:31:59.478Z,101063.31
2022-08-22T22:34:26.034Z,101054.44
2022-08-22T22:36:53.917Z,101060.16
2022-08-22T22:39:20.422Z,101059.38
2022-08-22T22:41:46.857Z,101052.22
2022-08-22T22:44:13.415Z,101064.66
2022-08-22T22:46:39.928Z,101057.25
2022-08-22T22:49:06.347Z,101055.56
2022-08-22T22:51:32.800Z,101056.03
2022-08-22T22:53:59.242Z,101063.25
2022-08-22T22:56:26.207Z,101058.38
2022-08-22T22:59:01.025Z,101062.56
2022-08-22T23:01:59.494Z,101062.63
2022-08-22T23:04:25.962Z,101059.06
2022-08-22T23:06:52.380Z,101061.84
2022-08-22T23:09:18.802Z,101065.19
2022-08-22T23:11:45.216Z,101060.19
2022-08-22T23:14:11.865Z,101062.00
2022-08-22T23:16:39.849Z,101053.41
2022-08-22T23:19:10.716Z,101056.25
2022-08-22T23:21:37.673Z,101062.34
2022-08-22T23:24:04.912Z,101059.56
2022-08-22T23:26:31.695Z,101058.59
2022-08-22T23:28:58.754Z,101057.81
2022-08-22T23:31:32.402Z,101062.22
2022-08-22T23:34:06.253Z,101063.41
2022-08-22T23:36:32.782Z,101060.16
2022-08-22T23:38:59.318Z,101057.81
2022-08-22T23:41:26.573Z,101053.03
2022-08-22T23:43:54.915Z,101055.38
2022-08-22T23:46:24.636Z,101052.44
2022-08-22T23:48:51.217Z,101054.94
2022-08-22T23:51:22.848Z,101050.72
2022-08-22T23:53:50.951Z,101045.06
2022-08-22T23:56:26.899Z,101036.41
2022-08-22T23:58:53.735Z,101043.44
